»·PEaware :: N701GT KSAC-KCRQ

N701GT :: KSAC-KCRQ

FLIGHT INFORMATION

Flight Status: Arrived
Operator: Privately registered:
United States
More flights under this callsign
Pilot: Anonymous 17564 (17564)
Aircraft: BEECH AIRCRAFT SUPER KING AIR COMMUTER
(BE20)
More flights by this aircraft type
Origin: KSAC Sacramento Executive
United States
Destination: KCRQ McClellan-Palomar
United States
More flights between these airports :: More routes between these airports
Route: +LIN BURGL LEGOZ2
File this flight plan on PilotEdge
Remarks:
Altitude:
(Current/Filed)
23,000ft
Speed:
(Current/Filed)
300kts
Departed: 25-Aug-18 05:14 PM
Arrived: 25-Aug-18 06:58 PM
Distance/Time
Traveled:
383nm/1:44
Distance/Time
To Go:
Arrived

Flight Plot

Page will automatically refresh every two minutes.

Flight plan parsing failed; only flown route is shown


Map Options




Map Legend


Flown Route
Filed Route
Departure Airport
Arrival Airport
Navaid (VOR, NDB)
Fix

Horizontal Profiles

Position Reports

Time Latitude Longitude Heading Altitude Ground
Speed
25-Aug-18 16:49 38.511780 -121.500842 182 28ft 0kts
25-Aug-18 16:50 38.511780 -121.500842 182 28ft 0kts
25-Aug-18 16:51 38.511780 -121.500842 182 28ft 0kts
25-Aug-18 16:52 38.511780 -121.500842 182 28ft 0kts
25-Aug-18 16:53 38.511780 -121.500842 182 28ft 0kts
25-Aug-18 16:54 38.511780 -121.500842 182 28ft 0kts
25-Aug-18 16:55 38.511780 -121.500842 182 28ft 0kts
25-Aug-18 16:56 38.511780 -121.500842 182 28ft 0kts
25-Aug-18 16:57 38.511780 -121.500842 182 28ft 0kts
25-Aug-18 16:58 38.511780 -121.500842 182 28ft 0kts
25-Aug-18 16:59 38.511780 -121.500842 182 28ft 0kts
25-Aug-18 17:00 38.511780 -121.500842 182 28ft 0kts
25-Aug-18 17:01 38.511780 -121.500842 182 28ft 0kts
25-Aug-18 17:02 38.511780 -121.500842 182 28ft 0kts
25-Aug-18 17:03 38.511780 -121.500842 182 28ft 0kts
25-Aug-18 17:04 38.511780 -121.500842 182 28ft 0kts
25-Aug-18 17:05 38.511776 -121.500842 182 28ft 0kts
25-Aug-18 17:06 38.511770 -121.500843 182 28ft 0kts
25-Aug-18 17:07 38.511714 -121.500845 177 28ft 1kts
25-Aug-18 17:08 38.511504 -121.499992 95 28ft 0kts
25-Aug-18 17:09 38.511472 -121.499562 94 28ft 15kts
25-Aug-18 17:10 38.512981 -121.495981 33 28ft 22kts
25-Aug-18 17:11 38.516662 -121.492902 33 28ft 15kts
25-Aug-18 17:12 38.519158 -121.490294 112 28ft 6kts
25-Aug-18 17:13 38.519154 -121.490280 108 28ft 0kts
25-Aug-18 17:14 38.519036 -121.489780 105 28ft 10kts
25-Aug-18 17:15 38.505722 -121.496145 155 1241ft 89kts
25-Aug-18 17:16 38.490169 -121.452117 104 2255ft 161kts
25-Aug-18 17:17 38.481523 -121.401584 104 2016ft 191kts
25-Aug-18 17:18 38.449683 -121.348198 147 3203ft 166kts
25-Aug-18 17:19 38.418023 -121.318992 146 4620ft 170kts
25-Aug-18 17:20 38.371994 -121.276510 145 6435ft 197kts
25-Aug-18 17:21 38.332600 -121.240030 145 7958ft 218kts
25-Aug-18 17:22 38.273957 -121.186029 146 10046ft 223kts
25-Aug-18 17:23 38.232102 -121.147574 147 11559ft 224kts
25-Aug-18 17:24 38.180928 -121.100731 148 13345ft 225kts
25-Aug-18 17:25 38.130207 -121.054388 148 15143ft 224kts
25-Aug-18 17:26 38.079363 -121.009277 157 16939ft 220kts
25-Aug-18 17:27 38.021882 -120.983345 167 18608ft 222kts
25-Aug-18 17:28 37.962121 -120.960369 166 20113ft 225kts
25-Aug-18 17:29 37.901917 -120.937276 166 21609ft 227kts
25-Aug-18 17:30 37.840959 -120.913966 166 22887ft 237kts
25-Aug-18 17:31 37.772984 -120.888177 166 23004ft 269kts
25-Aug-18 17:32 37.699653 -120.860290 166 22993ft 279kts
25-Aug-18 17:33 37.625750 -120.832165 166 22989ft 272kts
25-Aug-18 17:34 37.553159 -120.804625 166 22992ft 272kts
25-Aug-18 17:35 37.480778 -120.777229 166 22997ft 272kts
25-Aug-18 17:36 37.408319 -120.749846 166 22999ft 271kts
25-Aug-18 17:37 37.335836 -120.722511 166 22996ft 272kts
25-Aug-18 17:38 37.263185 -120.695187 166 22995ft 272kts
25-Aug-18 17:39 37.190871 -120.668022 166 22991ft 271kts
25-Aug-18 17:40 37.117880 -120.640680 166 22993ft 278kts
25-Aug-18 17:41 37.043060 -120.612719 166 22995ft 282kts
25-Aug-18 17:42 36.967349 -120.584445 166 22996ft 283kts
25-Aug-18 17:43 36.891679 -120.556261 166 22997ft 283kts
25-Aug-18 17:44 36.816186 -120.528194 166 22999ft 283kts
25-Aug-18 17:45 36.740463 -120.500099 166 22997ft 283kts
25-Aug-18 17:46 36.664769 -120.472084 166 22990ft 283kts
25-Aug-18 17:47 36.589390 -120.444222 166 22989ft 283kts
25-Aug-18 17:48 36.513706 -120.416337 166 22986ft 283kts
25-Aug-18 17:49 36.437996 -120.388480 165 22987ft 283kts
25-Aug-18 17:50 36.362461 -120.360741 165 22983ft 283kts
25-Aug-18 17:51 36.286871 -120.333049 166 22981ft 283kts
25-Aug-18 17:52 36.211259 -120.305389 166 22984ft 283kts
25-Aug-18 17:53 36.135409 -120.277718 165 22985ft 285kts
25-Aug-18 17:54 36.059214 -120.249971 165 22987ft 286kts
25-Aug-18 17:55 35.982486 -120.222075 166 22988ft 287kts
25-Aug-18 17:56 35.905662 -120.194214 165 22994ft 287kts
25-Aug-18 17:57 35.829132 -120.166525 166 22992ft 287kts
25-Aug-18 17:58 35.752416 -120.138815 166 22997ft 287kts
25-Aug-18 17:59 35.675855 -120.111228 166 23008ft 287kts
25-Aug-18 18:00 35.604622 -120.065872 149 23032ft 290kts
25-Aug-18 18:01 35.536898 -120.011479 150 23018ft 291kts
25-Aug-18 18:02 35.468351 -119.958865 151 23014ft 291kts
25-Aug-18 18:03 35.399181 -119.906789 151 23021ft 293kts
25-Aug-18 18:04 35.329875 -119.854871 151 23024ft 291kts
25-Aug-18 18:05 35.261919 -119.800191 144 23060ft 294kts
25-Aug-18 18:06 35.198203 -119.737184 143 23058ft 294kts
25-Aug-18 18:07 35.134710 -119.674575 144 23064ft 293kts
25-Aug-18 18:08 35.071509 -119.613004 144 23068ft 293kts
25-Aug-18 18:09 35.007714 -119.551210 144 23068ft 293kts
25-Aug-18 18:10 34.943887 -119.489558 144 23068ft 293kts
25-Aug-18 18:11 34.879764 -119.427774 144 23016ft 294kts
25-Aug-18 18:12 34.815793 -119.366254 144 23021ft 293kts
25-Aug-18 18:13 34.751776 -119.304813 144 23022ft 293kts
25-Aug-18 18:14 34.688022 -119.243753 144 23106ft 291kts
25-Aug-18 18:15 34.624593 -119.183137 144 23100ft 293kts
25-Aug-18 18:16 34.560569 -119.122065 144 23092ft 293kts
25-Aug-18 18:17 34.496491 -119.061071 144 23084ft 293kts
25-Aug-18 18:18 34.432415 -119.000200 144 23070ft 294kts
25-Aug-18 18:19 34.368110 -118.939251 144 23059ft 294kts
25-Aug-18 18:20 34.303543 -118.878161 144 23054ft 294kts
25-Aug-18 18:21 34.236831 -118.822013 156 23022ft 292kts
25-Aug-18 18:22 34.160550 -118.783507 160 22529ft 300kts
25-Aug-18 18:23 34.081798 -118.750709 167 21531ft 298kts
25-Aug-18 18:24 34.001697 -118.728678 169 20137ft 294kts
25-Aug-18 18:25 33.922022 -118.706954 168 18734ft 292kts
25-Aug-18 18:26 33.842928 -118.684984 168 17330ft 291kts
25-Aug-18 18:27 33.766918 -118.663742 168 16956ft 268kts
25-Aug-18 18:28 33.693789 -118.646561 171 16460ft 270kts
25-Aug-18 18:29 33.619349 -118.631220 171 15902ft 270kts
25-Aug-18 18:30 33.545457 -118.615828 171 15401ft 269kts
25-Aug-18 18:31 33.472166 -118.598181 155 14964ft 268kts
25-Aug-18 18:32 33.427551 -118.525732 117 14135ft 280kts
25-Aug-18 18:33 33.392750 -118.441677 118 13136ft 282kts
25-Aug-18 18:34 33.362034 -118.356189 100 12139ft 281kts
25-Aug-18 18:35 33.353745 -118.263601 96 11165ft 278kts
25-Aug-18 18:36 33.343040 -118.173278 99 10508ft 273kts
25-Aug-18 18:37 33.331044 -118.083932 99 9711ft 272kts
25-Aug-18 18:38 33.319048 -117.994389 99 8909ft 271kts
25-Aug-18 18:39 33.307146 -117.905356 99 8108ft 270kts
25-Aug-18 18:40 33.295218 -117.816972 99 7308ft 268kts
25-Aug-18 18:41 33.283691 -117.731714 99 6697ft 248kts
25-Aug-18 18:42 33.273089 -117.653654 99 6095ft 231kts
25-Aug-18 18:43 33.262819 -117.578404 99 5493ft 227kts
25-Aug-18 18:44 33.252599 -117.504086 99 5010ft 223kts
25-Aug-18 18:45 33.243167 -117.433068 93 4994ft 212kts
25-Aug-18 18:46 33.249182 -117.363154 82 4991ft 212kts
25-Aug-18 18:47 33.257360 -117.293354 82 4990ft 212kts
25-Aug-18 18:48 33.265593 -117.223469 82 4989ft 212kts
25-Aug-18 18:49 33.273807 -117.155243 82 4993ft 197kts
25-Aug-18 18:50 33.281175 -117.094974 82 4997ft 182kts
25-Aug-18 18:51 33.259029 -117.049305 167 4039ft 182kts
25-Aug-18 18:52 33.212734 -117.039292 172 3505ft 166kts
25-Aug-18 18:53 33.172963 -117.059942 222 3507ft 165kts
25-Aug-18 18:54 33.153856 -117.108178 260 3506ft 165kts
25-Aug-18 18:55 33.149006 -117.153250 259 2626ft 120kts
25-Aug-18 18:56 33.143057 -117.188872 257 1706ft 101kts
25-Aug-18 18:57 33.137900 -117.220472 257 1245ft 95kts
25-Aug-18 18:58 33.132850 -117.251696 257 738ft 96kts
25-Aug-18 18:59 33.128128 -117.280906 257 304ft 38kts
25-Aug-18 19:00 33.127177 -117.283019 222 304ft 7kts
25-Aug-18 19:01 33.127210 -117.280721 124 304ft 11kts
25-Aug-18 19:02 33.126849 -117.280699 258 304ft 0kts
25-Aug-18 19:03 33.126849 -117.280699 258 304ft 0kts
25-Aug-18 19:04 33.126849 -117.280699 258 304ft 0kts
25-Aug-18 19:05 33.126849 -117.280699 258 304ft 0kts

Navigation Log

Ident Type
Flight plan parsing failed, navigation log unavailable